Track Злобин Александр

Time Latitude Longitude Accuracy (66% radius in meters) Altitude (meters) Speed (km/hour) Bearing (degrees) Battery (%) GPS flag
10:37:58 60.370987 29.556401 16 76.354049075208 0 302.53475952148 79 1 delete
10:37:50 60.370979 29.556413 24 76.256511370533 0 302.53475952148 79 1 delete
10:37:38 60.370979 29.556413 16 76.025390427864 0 302.53475952148 79 1 delete
10:37:26 60.370979 29.556413 32 75.530060474182 0 302.53475952148 79 1 delete
10:37:14 60.370973 29.556409 16 75.062290070058 0 302.53475952148 79 1 delete
10:37:02 60.370904 29.556532 24 74.972475847253 0 302.53475952148 79 1 delete
10:36:50 60.370904 29.556532 24 75.327327543106 0 302.53475952148 79 1 delete
10:36:41 60.370904 29.556532 16 75.648029295147 0 302.53475952148 79 1 delete
10:36:29 60.370904 29.556532 16 75.951115324722 0 302.53475952148 79 1 delete
10:36:17 60.370904 29.556532 12 76.232057958543 0 302.53475952148 79 1 delete
10:36:05 60.370904 29.556532 24 76.609992585382 0 302.53475952148 79 1 delete
10:35:55 60.370904 29.556532 16 76.632800884167 0 302.53475952148 79 1 delete
10:35:43 60.370904 29.556532 12 76.561728443234 0 302.53475952148 79 1 delete
10:35:31 60.370904 29.556532 24 76.628944191558 0 302.53475952148 79 1 delete
10:35:22 60.370904 29.556532 16 76.599599797305 0 302.53475952148 79 1 delete
10:35:10 60.370904 29.556532 16 76.578675004344 0 302.53475952148 79 1 delete
10:34:58 60.370904 29.556532 24 76.853511439018 0 302.53475952148 79 1 delete
10:34:46 60.370904 29.556532 16 77.226144071632 0 302.53475952148 79 1 delete
10:34:34 60.370904 29.556532 24 77.582049054884 0 302.53475952148 83 1 delete
10:34:22 60.370904 29.556532 32 77.78701417524 0 302.53475952148 83 1 delete
10:34:14 60.370904 29.556532 16 77.86450718229 0 302.53475952148 83 1 delete
10:34:02 60.370904 29.556532 24 77.871901697424 0 302.53475952148 83 1 delete
10:33:50 60.370904 29.556532 12 77.914391607267 0 302.53475952148 83 1 delete
10:33:38 60.370904 29.556532 8 78.075391017366 0 302.53475952148 83 1 delete
10:33:26 60.370904 29.556532 8 78.470861256407 0 302.53475952148 83 1 delete
10:33:14 60.370904 29.556532 6 79.027102680503 0 302.53475952148 83 1 delete
10:33:05 60.370904 29.556532 8 79.006262136885 0 302.53475952148 83 1 delete
10:32:53 60.370904 29.556532 12 78.513758428936 0 302.53475952148 83 1 delete
10:32:41 60.370904 29.556532 4 79.074431776597 0 302.53475952148 83 1 delete
10:32:38 60.370876 29.556586 6 79.022400351731 1.444086432457 302.09671020508 83 1 delete
10:32:34 60.370828 29.556697 8 79.035802839269 0 294.68374633789 83 1 delete
10:32:29 60.370783 29.556760 12 78.781154915861 1.3826353549957 346.81326293945 83 1 delete
10:32:19 60.370712 29.556795 6 79.000951070425 2.6049978733063 299.81442260742 83 1 delete
10:32:17 60.370648 29.557027 8 79.674094524866 6.176034450531 313.86059570312 83 1 delete
10:32:14 60.370607 29.557293 8 81.471400625304 6.4350614547729 225.47346496582 83 1 delete
10:32:10 60.370734 29.557412 6 82.165161577215 6.9059023857117 159.70863342285 83 1 delete
10:32:07 60.370903 29.557192 6 83.720803902621 7.2387351989746 142.69367980957 83 1 delete
10:32:05 60.371098 29.556977 6 84.859448082409 7.9355273246765 186.66198730469 83 1 delete
10:32:02 60.371342 29.557041 8 84.321246454391 6.6417632102966 203.96215820312 83 1 delete
10:31:58 60.371522 29.557216 6 83.76472576134 6.3519268035889 210.86724853516 83 1 delete
10:31:55 60.371650 29.557422 6 82.236057974014 5.9790863990784 241.26933288574 83 1 delete
10:31:53 60.371736 29.557689 6 83.065561451196 5.9834442138672 243.2578125 83 1 delete
10:31:50 60.371820 29.557996 8 83.952687567531 5.26899766922 249.22637939453 83 1 delete
10:31:43 60.371875 29.558316 8 85.027646848895 2.3143904209137 275.71673583984 83 1 delete
10:31:41 60.371902 29.558527 6 85.372102424721 6.0628089904785 257.71508789062 83 1 delete
10:31:38 60.371948 29.558888 6 86.153604640472 7.0310997962952 254.92652893066 83 1 delete
10:31:34 60.372010 29.559305 6 87.540792313936 6.5875115394592 251.94869995117 83 1 delete
10:31:31 60.372061 29.559666 6 88.630833354278 5.905200958252 252.77117919922 83 1 delete
10:31:29 60.372111 29.560102 6 90.30003976177 6.8849101066589 254.10762023926 83 1 delete
10:31:26 60.372157 29.560550 6 92.75746393127 7.3135261535645 273.79159545898 83 1 delete